sensor_id;sensor_type;location;lat;lon;timestamp;temperature;humidity
10042;DHT22;5061;49.068;12.058;2023-01-31T00:02:19;2.50;99.90
10042;DHT22;5061;49.068;12.058;2023-01-31T00:05:40;2.50;99.90
10042;DHT22;5061;49.068;12.058;2023-01-31T00:09:02;2.50;99.90
10042;DHT22;5061;49.068;12.058;2023-01-31T00:12:22;2.50;99.90
10042;DHT22;5061;49.068;12.058;2023-01-31T00:15:43;2.50;99.90
10042;DHT22;5061;49.068;12.058;2023-01-31T00:19:03;2.50;99.90
10042;DHT22;5061;49.068;12.058;2023-01-31T00:22:24;2.50;99.90
10042;DHT22;5061;49.068;12.058;2023-01-31T00:25:45;2.50;99.90
10042;DHT22;5061;49.068;12.058;2023-01-31T00:29:05;2.50;99.90
10042;DHT22;5061;49.068;12.058;2023-01-31T00:32:26;2.60;99.90
10042;DHT22;5061;49.068;12.058;2023-01-31T00:35:46;2.60;99.90
10042;DHT22;5061;49.068;12.058;2023-01-31T00:39:08;2.60;99.90
10042;DHT22;5061;49.068;12.058;2023-01-31T00:42:28;2.60;99.90
10042;DHT22;5061;49.068;12.058;2023-01-31T00:45:49;2.60;99.90
10042;DHT22;5061;49.068;12.058;2023-01-31T00:49:09;2.60;99.90
10042;DHT22;5061;49.068;12.058;2023-01-31T00:52:30;2.60;99.90
10042;DHT22;5061;49.068;12.058;2023-01-31T00:55:53;2.60;99.90
10042;DHT22;5061;49.068;12.058;2023-01-31T00:59:14;2.60;99.90
10042;DHT22;5061;49.068;12.058;2023-01-31T01:02:34;2.60;99.90
10042;DHT22;5061;49.068;12.058;2023-01-31T01:05:55;2.60;99.90
10042;DHT22;5061;49.068;12.058;2023-01-31T01:09:16;2.60;99.90
10042;DHT22;5061;49.068;12.058;2023-01-31T01:12:37;2.60;99.90
10042;DHT22;5061;49.068;12.058;2023-01-31T01:16:02;2.60;99.90
10042;DHT22;5061;49.068;12.058;2023-01-31T01:19:22;2.60;99.90
10042;DHT22;5061;49.068;12.058;2023-01-31T01:22:43;2.60;99.90
10042;DHT22;5061;49.068;12.058;2023-01-31T01:26:04;2.60;99.90
10042;DHT22;5061;49.068;12.058;2023-01-31T01:29:25;2.60;99.90
10042;DHT22;5061;49.068;12.058;2023-01-31T01:32:46;2.50;99.90
10042;DHT22;5061;49.068;12.058;2023-01-31T01:36:08;2.60;99.90
10042;DHT22;5061;49.068;12.058;2023-01-31T01:39:32;2.60;99.90
10042;DHT22;5061;49.068;12.058;2023-01-31T01:42:53;2.60;99.90
10042;DHT22;5061;49.068;12.058;2023-01-31T01:46:41;2.60;99.90
10042;DHT22;5061;49.068;12.058;2023-01-31T01:50:13;2.60;99.90
10042;DHT22;5061;49.068;12.058;2023-01-31T01:53:38;2.60;99.90
10042;DHT22;5061;49.068;12.058;2023-01-31T01:57:03;2.60;99.90
10042;DHT22;5061;49.068;12.058;2023-01-31T02:00:27;2.60;99.90
10042;DHT22;5061;49.068;12.058;2023-01-31T02:03:50;2.60;99.90
10042;DHT22;5061;49.068;12.058;2023-01-31T02:07:12;2.50;99.90
10042;DHT22;5061;49.068;12.058;2023-01-31T02:10:53;2.50;99.90
10042;DHT22;5061;49.068;12.058;2023-01-31T02:14:16;2.50;99.90
10042;DHT22;5061;49.068;12.058;2023-01-31T02:17:37;2.50;99.90
10042;DHT22;5061;49.068;12.058;2023-01-31T02:36:38;2.40;99.90
10042;DHT22;5061;49.068;12.058;2023-01-31T02:40:16;2.40;99.90
10042;DHT22;5061;49.068;12.058;2023-01-31T02:43:55;2.40;99.90
10042;DHT22;5061;49.068;12.058;2023-01-31T02:51:30;2.40;99.90
10042;DHT22;5061;49.068;12.058;2023-01-31T02:55:08;2.40;99.90
10042;DHT22;5061;49.068;12.058;2023-01-31T02:59:04;2.40;99.90
10042;DHT22;5061;49.068;12.058;2023-01-31T03:02:25;2.30;99.90
10042;DHT22;5061;49.068;12.058;2023-01-31T03:17:03;2.30;99.90
10042;DHT22;5061;49.068;12.058;2023-01-31T03:21:06;2.30;99.90
10042;DHT22;5061;49.068;12.058;2023-01-31T03:24:30;2.30;99.90
10042;DHT22;5061;49.068;12.058;2023-01-31T03:27:53;2.30;99.90
10042;DHT22;5061;49.068;12.058;2023-01-31T03:31:20;2.30;99.90
10042;DHT22;5061;49.068;12.058;2023-01-31T03:34:42;2.30;99.90
10042;DHT22;5061;49.068;12.058;2023-01-31T03:38:24;2.30;99.90
10042;DHT22;5061;49.068;12.058;2023-01-31T03:41:55;2.30;99.90
10042;DHT22;5061;49.068;12.058;2023-01-31T03:45:27;2.30;99.90
10042;DHT22;5061;49.068;12.058;2023-01-31T03:48:52;2.30;99.90
10042;DHT22;5061;49.068;12.058;2023-01-31T03:52:21;2.30;99.90
10042;DHT22;5061;49.068;12.058;2023-01-31T03:55:51;2.30;99.90
10042;DHT22;5061;49.068;12.058;2023-01-31T03:59:19;2.30;99.90
10042;DHT22;5061;49.068;12.058;2023-01-31T04:02:40;2.30;99.90
10042;DHT22;5061;49.068;12.058;2023-01-31T04:06:01;2.30;99.90
10042;DHT22;5061;49.068;12.058;2023-01-31T04:09:21;2.20;99.90
10042;DHT22;5061;49.068;12.058;2023-01-31T04:12:42;2.20;99.90
10042;DHT22;5061;49.068;12.058;2023-01-31T04:16:04;2.20;99.90
10042;DHT22;5061;49.068;12.058;2023-01-31T04:19:24;2.20;99.90
10042;DHT22;5061;49.068;12.058;2023-01-31T04:22:45;2.20;99.90
10042;DHT22;5061;49.068;12.058;2023-01-31T04:26:05;2.20;99.90
10042;DHT22;5061;49.068;12.058;2023-01-31T04:29:26;2.20;99.90
10042;DHT22;5061;49.068;12.058;2023-01-31T04:32:46;2.20;99.90
10042;DHT22;5061;49.068;12.058;2023-01-31T04:36:07;2.10;99.90
10042;DHT22;5061;49.068;12.058;2023-01-31T04:39:28;2.20;99.90
10042;DHT22;5061;49.068;12.058;2023-01-31T04:42:50;2.10;99.90
10042;DHT22;5061;49.068;12.058;2023-01-31T04:46:10;2.10;99.90
10042;DHT22;5061;49.068;12.058;2023-01-31T04:49:31;2.10;99.90
10042;DHT22;5061;49.068;12.058;2023-01-31T04:52:52;2.10;99.90
10042;DHT22;5061;49.068;12.058;2023-01-31T04:56:13;2.10;99.90
10042;DHT22;5061;49.068;12.058;2023-01-31T04:59:33;2.10;99.90
10042;DHT22;5061;49.068;12.058;2023-01-31T05:02:54;2.10;99.90
10042;DHT22;5061;49.068;12.058;2023-01-31T05:06:14;2.10;99.90
10042;DHT22;5061;49.068;12.058;2023-01-31T05:09:35;2.10;99.90
10042;DHT22;5061;49.068;12.058;2023-01-31T05:12:56;2.10;99.90
10042;DHT22;5061;49.068;12.058;2023-01-31T05:16:16;2.10;99.90
10042;DHT22;5061;49.068;12.058;2023-01-31T05:19:37;2.00;99.90
10042;DHT22;5061;49.068;12.058;2023-01-31T05:22:57;2.10;99.90
10042;DHT22;5061;49.068;12.058;2023-01-31T05:26:18;2.00;99.90
10042;DHT22;5061;49.068;12.058;2023-01-31T05:29:38;2.00;99.90
10042;DHT22;5061;49.068;12.058;2023-01-31T05:32:59;2.00;99.90
10042;DHT22;5061;49.068;12.058;2023-01-31T05:36:20;2.10;99.90
10042;DHT22;5061;49.068;12.058;2023-01-31T05:39:40;2.10;99.90
10042;DHT22;5061;49.068;12.058;2023-01-31T05:43:01;2.10;99.90
10042;DHT22;5061;49.068;12.058;2023-01-31T05:46:21;2.00;99.90
10042;DHT22;5061;49.068;12.058;2023-01-31T05:49:42;2.00;99.90
10042;DHT22;5061;49.068;12.058;2023-01-31T05:53:02;2.00;99.90
10042;DHT22;5061;49.068;12.058;2023-01-31T05:56:23;1.90;99.90
10042;DHT22;5061;49.068;12.058;2023-01-31T05:59:44;1.90;99.90
10042;DHT22;5061;49.068;12.058;2023-01-31T06:03:04;1.90;99.90
10042;DHT22;5061;49.068;12.058;2023-01-31T06:06:25;1.90;99.90
10042;DHT22;5061;49.068;12.058;2023-01-31T06:09:46;1.90;99.90
10042;DHT22;5061;49.068;12.058;2023-01-31T06:13:06;1.90;99.90
10042;DHT22;5061;49.068;12.058;2023-01-31T06:16:27;2.00;99.90
10042;DHT22;5061;49.068;12.058;2023-01-31T06:19:47;2.00;99.90
10042;DHT22;5061;49.068;12.058;2023-01-31T06:23:08;2.00;99.90
10042;DHT22;5061;49.068;12.058;2023-01-31T06:26:28;2.00;99.90
10042;DHT22;5061;49.068;12.058;2023-01-31T06:29:49;1.90;99.90
10042;DHT22;5061;49.068;12.058;2023-01-31T06:33:10;2.00;99.90
10042;DHT22;5061;49.068;12.058;2023-01-31T06:36:32;2.00;99.90
10042;DHT22;5061;49.068;12.058;2023-01-31T06:39:53;2.00;99.90
10042;DHT22;5061;49.068;12.058;2023-01-31T06:43:14;2.00;99.90
10042;DHT22;5061;49.068;12.058;2023-01-31T06:46:34;2.10;99.90
10042;DHT22;5061;49.068;12.058;2023-01-31T06:49:55;2.00;99.90
10042;DHT22;5061;49.068;12.058;2023-01-31T06:53:16;2.10;99.90
10042;DHT22;5061;49.068;12.058;2023-01-31T06:56:37;2.10;99.90
10042;DHT22;5061;49.068;12.058;2023-01-31T06:59:57;2.10;99.90
10042;DHT22;5061;49.068;12.058;2023-01-31T07:03:18;2.10;99.90
10042;DHT22;5061;49.068;12.058;2023-01-31T07:06:38;2.10;99.90
10042;DHT22;5061;49.068;12.058;2023-01-31T07:09:59;2.10;99.90
10042;DHT22;5061;49.068;12.058;2023-01-31T07:13:20;2.10;99.90
10042;DHT22;5061;49.068;12.058;2023-01-31T07:16:40;2.10;99.90
10042;DHT22;5061;49.068;12.058;2023-01-31T07:20:02;2.10;99.90
10042;DHT22;5061;49.068;12.058;2023-01-31T07:23:22;2.10;99.90
10042;DHT22;5061;49.068;12.058;2023-01-31T07:26:43;2.10;99.90
10042;DHT22;5061;49.068;12.058;2023-01-31T07:30:04;2.10;99.90
10042;DHT22;5061;49.068;12.058;2023-01-31T07:33:25;2.10;99.90
10042;DHT22;5061;49.068;12.058;2023-01-31T07:36:49;2.10;99.90
10042;DHT22;5061;49.068;12.058;2023-01-31T07:40:11;2.10;99.90
10042;DHT22;5061;49.068;12.058;2023-01-31T07:43:32;2.10;99.90
10042;DHT22;5061;49.068;12.058;2023-01-31T07:46:52;2.10;99.90
10042;DHT22;5061;49.068;12.058;2023-01-31T07:50:16;2.10;99.90
10042;DHT22;5061;49.068;12.058;2023-01-31T07:53:38;2.10;99.90
10042;DHT22;5061;49.068;12.058;2023-01-31T07:57:03;2.10;99.90
10042;DHT22;5061;49.068;12.058;2023-01-31T08:00:24;2.10;99.90
10042;DHT22;5061;49.068;12.058;2023-01-31T08:04:05;2.10;99.90
10042;DHT22;5061;49.068;12.058;2023-01-31T08:07:27;2.10;99.90
10042;DHT22;5061;49.068;12.058;2023-01-31T08:10:48;2.10;99.90
10042;DHT22;5061;49.068;12.058;2023-01-31T08:14:09;2.20;99.90
10042;DHT22;5061;49.068;12.058;2023-01-31T08:17:30;2.20;99.90
10042;DHT22;5061;49.068;12.058;2023-01-31T08:20:51;2.20;99.90
10042;DHT22;5061;49.068;12.058;2023-01-31T08:24:12;2.20;99.90
10042;DHT22;5061;49.068;12.058;2023-01-31T08:27:32;2.20;99.90
10042;DHT22;5061;49.068;12.058;2023-01-31T08:30:53;2.20;99.90
10042;DHT22;5061;49.068;12.058;2023-01-31T08:34:13;2.20;99.90
10042;DHT22;5061;49.068;12.058;2023-01-31T08:37:34;2.20;99.90
10042;DHT22;5061;49.068;12.058;2023-01-31T08:40:57;2.20;99.90
10042;DHT22;5061;49.068;12.058;2023-01-31T08:44:18;2.30;99.90
10042;DHT22;5061;49.068;12.058;2023-01-31T08:47:39;2.40;99.90
10042;DHT22;5061;49.068;12.058;2023-01-31T08:51:00;2.40;99.90
10042;DHT22;5061;49.068;12.058;2023-01-31T08:54:22;2.50;99.90
10042;DHT22;5061;49.068;12.058;2023-01-31T08:57:43;2.50;99.90
10042;DHT22;5061;49.068;12.058;2023-01-31T09:01:07;2.60;99.90
10042;DHT22;5061;49.068;12.058;2023-01-31T09:04:29;2.50;99.90
10042;DHT22;5061;49.068;12.058;2023-01-31T09:07:49;2.60;99.90
10042;DHT22;5061;49.068;12.058;2023-01-31T09:11:13;2.60;99.90
10042;DHT22;5061;49.068;12.058;2023-01-31T09:14:38;2.60;99.90
10042;DHT22;5061;49.068;12.058;2023-01-31T09:17:58;2.60;99.90
10042;DHT22;5061;49.068;12.058;2023-01-31T09:21:20;2.60;99.90
10042;DHT22;5061;49.068;12.058;2023-01-31T09:24:42;2.60;99.90
10042;DHT22;5061;49.068;12.058;2023-01-31T09:28:02;2.50;99.90
10042;DHT22;5061;49.068;12.058;2023-01-31T09:31:23;2.50;99.90
10042;DHT22;5061;49.068;12.058;2023-01-31T09:34:43;2.50;99.90
10042;DHT22;5061;49.068;12.058;2023-01-31T09:38:06;2.50;99.90
10042;DHT22;5061;49.068;12.058;2023-01-31T09:41:54;2.60;99.90
10042;DHT22;5061;49.068;12.058;2023-01-31T09:45:33;2.60;99.90
10042;DHT22;5061;49.068;12.058;2023-01-31T09:48:56;2.60;99.90
10042;DHT22;5061;49.068;12.058;2023-01-31T09:52:19;2.60;99.90
10042;DHT22;5061;49.068;12.058;2023-01-31T09:59:47;2.60;99.90
10042;DHT22;5061;49.068;12.058;2023-01-31T10:07:11;2.60;99.90
10042;DHT22;5061;49.068;12.058;2023-01-31T10:10:50;2.60;99.90
10042;DHT22;5061;49.068;12.058;2023-01-31T10:17:46;2.60;99.90
10042;DHT22;5061;49.068;12.058;2023-01-31T10:21:16;2.60;99.90
10042;DHT22;5061;49.068;12.058;2023-01-31T10:24:46;2.70;99.90
10042;DHT22;5061;49.068;12.058;2023-01-31T10:28:14;2.70;99.90
10042;DHT22;5061;49.068;12.058;2023-01-31T10:31:42;2.70;99.90
10042;DHT22;5061;49.068;12.058;2023-01-31T10:38:54;2.70;99.90
10042;DHT22;5061;49.068;12.058;2023-01-31T10:42:33;2.70;99.90
10042;DHT22;5061;49.068;12.058;2023-01-31T10:45:58;2.70;99.90
10042;DHT22;5061;49.068;12.058;2023-01-31T10:49:20;2.70;99.90
10042;DHT22;5061;49.068;12.058;2023-01-31T10:52:57;2.70;99.90
10042;DHT22;5061;49.068;12.058;2023-01-31T10:59:55;2.80;99.90
10042;DHT22;5061;49.068;12.058;2023-01-31T11:03:16;2.80;99.90
10042;DHT22;5061;49.068;12.058;2023-01-31T11:06:37;2.80;99.90
10042;DHT22;5061;49.068;12.058;2023-01-31T11:09:58;2.90;99.90
10042;DHT22;5061;49.068;12.058;2023-01-31T11:13:19;2.90;99.90
10042;DHT22;5061;49.068;12.058;2023-01-31T11:16:40;2.90;99.90
10042;DHT22;5061;49.068;12.058;2023-01-31T11:20:01;3.00;99.90
10042;DHT22;5061;49.068;12.058;2023-01-31T11:23:25;3.00;99.90
10042;DHT22;5061;49.068;12.058;2023-01-31T11:30:35;3.00;99.90
10042;DHT22;5061;49.068;12.058;2023-01-31T11:34:03;2.90;99.90
10042;DHT22;5061;49.068;12.058;2023-01-31T11:37:24;3.00;99.90
10042;DHT22;5061;49.068;12.058;2023-01-31T11:40:44;3.00;99.90
10042;DHT22;5061;49.068;12.058;2023-01-31T11:44:13;3.10;99.90
10042;DHT22;5061;49.068;12.058;2023-01-31T11:47:42;3.10;99.90
10042;DHT22;5061;49.068;12.058;2023-01-31T11:51:07;3.10;99.90
10042;DHT22;5061;49.068;12.058;2023-01-31T11:54:31;3.20;99.90
10042;DHT22;5061;49.068;12.058;2023-01-31T11:57:58;3.20;99.90
10042;DHT22;5061;49.068;12.058;2023-01-31T12:01:22;3.20;99.90
10042;DHT22;5061;49.068;12.058;2023-01-31T12:04:44;3.20;99.90
10042;DHT22;5061;49.068;12.058;2023-01-31T12:08:05;3.30;99.90
10042;DHT22;5061;49.068;12.058;2023-01-31T12:11:31;3.30;99.90
10042;DHT22;5061;49.068;12.058;2023-01-31T12:14:57;3.40;99.90
10042;DHT22;5061;49.068;12.058;2023-01-31T12:18:34;3.40;99.90
10042;DHT22;5061;49.068;12.058;2023-01-31T12:22:17;3.40;99.90
10042;DHT22;5061;49.068;12.058;2023-01-31T12:25:47;3.40;99.90
10042;DHT22;5061;49.068;12.058;2023-01-31T12:29:23;3.40;99.90
10042;DHT22;5061;49.068;12.058;2023-01-31T12:33:00;3.40;99.90
10042;DHT22;5061;49.068;12.058;2023-01-31T12:36:36;3.40;99.90
10042;DHT22;5061;49.068;12.058;2023-01-31T12:40:25;3.40;99.90
10042;DHT22;5061;49.068;12.058;2023-01-31T12:44:01;3.40;99.90
10042;DHT22;5061;49.068;12.058;2023-01-31T12:51:19;3.50;99.90
10042;DHT22;5061;49.068;12.058;2023-01-31T13:05:35;3.50;99.90
10042;DHT22;5061;49.068;12.058;2023-01-31T13:09:02;3.50;99.90
10042;DHT22;5061;49.068;12.058;2023-01-31T13:12:31;3.40;99.90
10042;DHT22;5061;49.068;12.058;2023-01-31T13:16:04;3.40;99.90
10042;DHT22;5061;49.068;12.058;2023-01-31T13:23:03;3.40;99.90
10042;DHT22;5061;49.068;12.058;2023-01-31T13:26:36;3.40;99.90
10042;DHT22;5061;49.068;12.058;2023-01-31T13:30:04;3.40;99.90
10042;DHT22;5061;49.068;12.058;2023-01-31T13:33:43;3.40;99.90
10042;DHT22;5061;49.068;12.058;2023-01-31T13:37:10;3.30;99.90
10042;DHT22;5061;49.068;12.058;2023-01-31T13:40:53;3.30;99.90
10042;DHT22;5061;49.068;12.058;2023-01-31T13:44:15;3.30;99.90
10042;DHT22;5061;49.068;12.058;2023-01-31T13:47:45;3.30;99.90
10042;DHT22;5061;49.068;12.058;2023-01-31T13:51:20;3.30;99.90
10042;DHT22;5061;49.068;12.058;2023-01-31T13:54:47;3.30;99.90
10042;DHT22;5061;49.068;12.058;2023-01-31T13:58:20;3.30;99.90
10042;DHT22;5061;49.068;12.058;2023-01-31T14:01:45;3.30;99.90
10042;DHT22;5061;49.068;12.058;2023-01-31T14:09:15;3.20;99.90
10042;DHT22;5061;49.068;12.058;2023-01-31T14:12:41;3.20;99.90
10042;DHT22;5061;49.068;12.058;2023-01-31T14:16:03;3.20;99.90
10042;DHT22;5061;49.068;12.058;2023-01-31T14:23:42;3.30;99.90
10042;DHT22;5061;49.068;12.058;2023-01-31T14:27:32;3.30;99.90
10042;DHT22;5061;49.068;12.058;2023-01-31T14:30:51;3.30;99.90
10042;DHT22;5061;49.068;12.058;2023-01-31T14:34:19;3.30;99.90
10042;DHT22;5061;49.068;12.058;2023-01-31T15:00:28;3.20;99.90
10042;DHT22;5061;49.068;12.058;2023-01-31T15:03:55;3.20;99.90
10042;DHT22;5061;49.068;12.058;2023-01-31T15:07:18;3.30;99.90
10042;DHT22;5061;49.068;12.058;2023-01-31T15:14:41;3.20;99.90
10042;DHT22;5061;49.068;12.058;2023-01-31T15:18:17;3.20;99.90
10042;DHT22;5061;49.068;12.058;2023-01-31T15:21:52;3.20;99.90
10042;DHT22;5061;49.068;12.058;2023-01-31T15:29:22;3.20;99.90
10042;DHT22;5061;49.068;12.058;2023-01-31T15:32:57;3.20;99.90
10042;DHT22;5061;49.068;12.058;2023-01-31T15:36:27;3.10;99.90
10042;DHT22;5061;49.068;12.058;2023-01-31T15:39:59;3.10;99.90
10042;DHT22;5061;49.068;12.058;2023-01-31T15:43:23;3.10;99.90
10042;DHT22;5061;49.068;12.058;2023-01-31T15:46:46;3.10;99.90
10042;DHT22;5061;49.068;12.058;2023-01-31T15:50:15;3.10;99.90
10042;DHT22;5061;49.068;12.058;2023-01-31T15:53:36;3.10;99.90
10042;DHT22;5061;49.068;12.058;2023-01-31T15:56:57;3.10;99.90
10042;DHT22;5061;49.068;12.058;2023-01-31T16:00:21;3.00;99.90
10042;DHT22;5061;49.068;12.058;2023-01-31T16:03:51;3.00;99.90
10042;DHT22;5061;49.068;12.058;2023-01-31T16:07:20;3.00;99.90
10042;DHT22;5061;49.068;12.058;2023-01-31T16:10:42;3.00;99.90
10042;DHT22;5061;49.068;12.058;2023-01-31T16:14:05;3.00;99.90
10042;DHT22;5061;49.068;12.058;2023-01-31T16:17:27;2.90;99.90
10042;DHT22;5061;49.068;12.058;2023-01-31T16:20:51;2.90;99.90
10042;DHT22;5061;49.068;12.058;2023-01-31T16:24:14;2.90;99.90
10042;DHT22;5061;49.068;12.058;2023-01-31T16:27:36;2.90;99.90
10042;DHT22;5061;49.068;12.058;2023-01-31T16:31:11;2.90;99.90
10042;DHT22;5061;49.068;12.058;2023-01-31T16:34:34;3.00;99.90
10042;DHT22;5061;49.068;12.058;2023-01-31T16:38:03;3.00;99.90
10042;DHT22;5061;49.068;12.058;2023-01-31T16:41:40;3.00;99.90
10042;DHT22;5061;49.068;12.058;2023-01-31T16:45:02;3.00;99.90
10042;DHT22;5061;49.068;12.058;2023-01-31T16:51:44;3.00;99.90
10042;DHT22;5061;49.068;12.058;2023-01-31T16:55:16;3.00;99.90
10042;DHT22;5061;49.068;12.058;2023-01-31T16:58:54;3.00;99.90
10042;DHT22;5061;49.068;12.058;2023-01-31T17:02:17;3.00;99.90
10042;DHT22;5061;49.068;12.058;2023-01-31T17:05:40;3.00;99.90
10042;DHT22;5061;49.068;12.058;2023-01-31T17:09:06;3.00;99.90
10042;DHT22;5061;49.068;12.058;2023-01-31T17:12:37;3.00;99.90
10042;DHT22;5061;49.068;12.058;2023-01-31T17:15:59;3.00;99.90
10042;DHT22;5061;49.068;12.058;2023-01-31T17:19:20;3.00;99.90
10042;DHT22;5061;49.068;12.058;2023-01-31T17:22:41;2.90;99.90
10042;DHT22;5061;49.068;12.058;2023-01-31T17:26:02;2.90;99.90
10042;DHT22;5061;49.068;12.058;2023-01-31T17:29:23;2.90;99.90
10042;DHT22;5061;49.068;12.058;2023-01-31T17:32:45;2.90;99.90
10042;DHT22;5061;49.068;12.058;2023-01-31T17:36:07;2.90;99.90
10042;DHT22;5061;49.068;12.058;2023-01-31T17:39:28;2.80;99.90
10042;DHT22;5061;49.068;12.058;2023-01-31T17:43:00;2.70;99.90
10042;DHT22;5061;49.068;12.058;2023-01-31T17:46:22;2.70;99.90
10042;DHT22;5061;49.068;12.058;2023-01-31T17:49:42;2.60;99.90
10042;DHT22;5061;49.068;12.058;2023-01-31T17:53:03;2.60;99.90
10042;DHT22;5061;49.068;12.058;2023-01-31T17:56:24;2.50;99.90
10042;DHT22;5061;49.068;12.058;2023-01-31T17:59:44;2.50;99.90
10042;DHT22;5061;49.068;12.058;2023-01-31T18:03:05;2.40;99.90
10042;DHT22;5061;49.068;12.058;2023-01-31T18:06:25;2.40;99.90
10042;DHT22;5061;49.068;12.058;2023-01-31T18:09:46;2.40;99.90
10042;DHT22;5061;49.068;12.058;2023-01-31T18:13:07;2.30;99.90
10042;DHT22;5061;49.068;12.058;2023-01-31T18:16:29;2.30;99.90
10042;DHT22;5061;49.068;12.058;2023-01-31T18:19:50;2.20;99.90
10042;DHT22;5061;49.068;12.058;2023-01-31T18:23:10;2.20;99.90
10042;DHT22;5061;49.068;12.058;2023-01-31T18:26:31;2.20;99.90
10042;DHT22;5061;49.068;12.058;2023-01-31T18:29:52;2.20;99.90
10042;DHT22;5061;49.068;12.058;2023-01-31T18:33:14;2.10;99.90
10042;DHT22;5061;49.068;12.058;2023-01-31T18:36:35;2.10;99.90
10042;DHT22;5061;49.068;12.058;2023-01-31T18:39:56;2.10;99.90
10042;DHT22;5061;49.068;12.058;2023-01-31T18:43:17;2.10;99.90
10042;DHT22;5061;49.068;12.058;2023-01-31T18:46:37;2.10;99.90
10042;DHT22;5061;49.068;12.058;2023-01-31T18:49:58;2.10;99.90
10042;DHT22;5061;49.068;12.058;2023-01-31T18:53:22;2.10;99.90
10042;DHT22;5061;49.068;12.058;2023-01-31T18:56:42;2.10;99.90
10042;DHT22;5061;49.068;12.058;2023-01-31T19:00:04;2.10;99.90
10042;DHT22;5061;49.068;12.058;2023-01-31T19:03:27;2.00;99.90
10042;DHT22;5061;49.068;12.058;2023-01-31T19:06:49;2.00;99.90
10042;DHT22;5061;49.068;12.058;2023-01-31T19:10:10;2.00;99.90
10042;DHT22;5061;49.068;12.058;2023-01-31T19:13:31;2.00;99.90
10042;DHT22;5061;49.068;12.058;2023-01-31T19:16:52;2.00;99.90
10042;DHT22;5061;49.068;12.058;2023-01-31T19:20:12;2.00;99.90
10042;DHT22;5061;49.068;12.058;2023-01-31T19:23:33;2.00;99.90
10042;DHT22;5061;49.068;12.058;2023-01-31T19:26:53;2.00;99.90
10042;DHT22;5061;49.068;12.058;2023-01-31T19:30:15;2.00;99.90
10042;DHT22;5061;49.068;12.058;2023-01-31T19:33:35;2.00;99.90
10042;DHT22;5061;49.068;12.058;2023-01-31T19:36:56;2.00;99.90
10042;DHT22;5061;49.068;12.058;2023-01-31T19:40:17;2.00;99.90
10042;DHT22;5061;49.068;12.058;2023-01-31T19:43:38;2.10;99.90
10042;DHT22;5061;49.068;12.058;2023-01-31T19:46:58;2.10;99.90
10042;DHT22;5061;49.068;12.058;2023-01-31T19:50:19;2.10;99.90
10042;DHT22;5061;49.068;12.058;2023-01-31T19:53:40;2.10;99.90
10042;DHT22;5061;49.068;12.058;2023-01-31T19:57:00;2.10;99.90
10042;DHT22;5061;49.068;12.058;2023-01-31T20:00:21;2.20;99.90
10042;DHT22;5061;49.068;12.058;2023-01-31T20:03:43;2.20;99.90
10042;DHT22;5061;49.068;12.058;2023-01-31T20:07:04;2.20;99.90
10042;DHT22;5061;49.068;12.058;2023-01-31T20:10:24;2.30;99.90
10042;DHT22;5061;49.068;12.058;2023-01-31T20:13:47;2.30;99.90
10042;DHT22;5061;49.068;12.058;2023-01-31T20:17:08;2.30;99.90
10042;DHT22;5061;49.068;12.058;2023-01-31T20:20:31;2.40;99.90
10042;DHT22;5061;49.068;12.058;2023-01-31T20:23:55;2.40;99.90
10042;DHT22;5061;49.068;12.058;2023-01-31T20:27:15;2.40;99.90
10042;DHT22;5061;49.068;12.058;2023-01-31T20:30:36;2.40;99.90
10042;DHT22;5061;49.068;12.058;2023-01-31T20:33:59;2.40;99.90
10042;DHT22;5061;49.068;12.058;2023-01-31T20:37:23;2.40;99.90
10042;DHT22;5061;49.068;12.058;2023-01-31T20:40:51;2.50;99.90
10042;DHT22;5061;49.068;12.058;2023-01-31T20:44:12;2.50;99.90
10042;DHT22;5061;49.068;12.058;2023-01-31T20:47:36;2.50;99.90
10042;DHT22;5061;49.068;12.058;2023-01-31T20:50:57;2.50;99.90
10042;DHT22;5061;49.068;12.058;2023-01-31T20:54:19;2.50;99.90
10042;DHT22;5061;49.068;12.058;2023-01-31T20:57:39;2.50;99.90
10042;DHT22;5061;49.068;12.058;2023-01-31T21:01:03;2.50;99.90
10042;DHT22;5061;49.068;12.058;2023-01-31T21:04:24;2.50;99.90
10042;DHT22;5061;49.068;12.058;2023-01-31T21:07:44;2.50;99.90
10042;DHT22;5061;49.068;12.058;2023-01-31T21:11:12;2.50;99.90
10042;DHT22;5061;49.068;12.058;2023-01-31T21:14:35;2.50;99.90
10042;DHT22;5061;49.068;12.058;2023-01-31T21:17:57;2.60;99.90
10042;DHT22;5061;49.068;12.058;2023-01-31T21:21:19;2.50;99.90
10042;DHT22;5061;49.068;12.058;2023-01-31T21:24:42;2.50;99.90
10042;DHT22;5061;49.068;12.058;2023-01-31T21:28:03;2.50;99.90
10042;DHT22;5061;49.068;12.058;2023-01-31T21:31:24;2.60;99.90
10042;DHT22;5061;49.068;12.058;2023-01-31T21:34:45;2.60;99.90
10042;DHT22;5061;49.068;12.058;2023-01-31T21:38:06;2.60;99.90
10042;DHT22;5061;49.068;12.058;2023-01-31T21:41:27;2.60;99.90
10042;DHT22;5061;49.068;12.058;2023-01-31T21:45:07;2.60;99.90
10042;DHT22;5061;49.068;12.058;2023-01-31T21:48:28;2.60;99.90
10042;DHT22;5061;49.068;12.058;2023-01-31T21:51:49;2.60;99.90
10042;DHT22;5061;49.068;12.058;2023-01-31T21:55:09;2.60;99.90
10042;DHT22;5061;49.068;12.058;2023-01-31T21:58:30;2.70;99.90
10042;DHT22;5061;49.068;12.058;2023-01-31T22:01:51;2.70;99.90
10042;DHT22;5061;49.068;12.058;2023-01-31T22:05:11;2.70;99.90
10042;DHT22;5061;49.068;12.058;2023-01-31T22:08:32;2.70;99.90
10042;DHT22;5061;49.068;12.058;2023-01-31T22:11:53;2.70;99.90
10042;DHT22;5061;49.068;12.058;2023-01-31T22:15:14;2.70;99.90
10042;DHT22;5061;49.068;12.058;2023-01-31T22:18:37;2.80;99.90
10042;DHT22;5061;49.068;12.058;2023-01-31T22:21:58;2.70;99.90
10042;DHT22;5061;49.068;12.058;2023-01-31T22:25:19;2.80;99.90
10042;DHT22;5061;49.068;12.058;2023-01-31T22:28:39;2.80;99.90
10042;DHT22;5061;49.068;12.058;2023-01-31T22:32:00;2.80;99.90
10042;DHT22;5061;49.068;12.058;2023-01-31T22:35:20;2.80;99.90
10042;DHT22;5061;49.068;12.058;2023-01-31T22:38:41;2.80;99.90
10042;DHT22;5061;49.068;12.058;2023-01-31T22:42:02;2.80;99.90
10042;DHT22;5061;49.068;12.058;2023-01-31T22:45:23;2.80;99.90
10042;DHT22;5061;49.068;12.058;2023-01-31T22:48:44;2.70;99.90
10042;DHT22;5061;49.068;12.058;2023-01-31T22:52:06;2.70;99.90
10042;DHT22;5061;49.068;12.058;2023-01-31T22:55:26;2.70;99.90
10042;DHT22;5061;49.068;12.058;2023-01-31T22:58:48;2.70;99.90
10042;DHT22;5061;49.068;12.058;2023-01-31T23:02:08;2.70;99.90
10042;DHT22;5061;49.068;12.058;2023-01-31T23:05:29;2.70;99.90
10042;DHT22;5061;49.068;12.058;2023-01-31T23:08:50;2.70;99.90
10042;DHT22;5061;49.068;12.058;2023-01-31T23:12:11;2.70;99.90
10042;DHT22;5061;49.068;12.058;2023-01-31T23:15:32;2.60;99.90
10042;DHT22;5061;49.068;12.058;2023-01-31T23:18:53;2.60;99.90
10042;DHT22;5061;49.068;12.058;2023-01-31T23:22:14;2.60;99.90
10042;DHT22;5061;49.068;12.058;2023-01-31T23:25:34;2.60;99.90
10042;DHT22;5061;49.068;12.058;2023-01-31T23:28:55;2.60;99.90
10042;DHT22;5061;49.068;12.058;2023-01-31T23:32:15;2.70;99.90
10042;DHT22;5061;49.068;12.058;2023-01-31T23:35:36;2.70;99.90
10042;DHT22;5061;49.068;12.058;2023-01-31T23:38:57;2.70;99.90
10042;DHT22;5061;49.068;12.058;2023-01-31T23:42:17;2.70;99.90